world map with KIH marked

KIH - Airport

This information may not be accurate or current and is not valid for navigation or flight planning. No warranty of fitness for any purpose is made or implied.

flag of Iran

Donate via PayPal

Additional information is available on the NEW Great Circle Mapper

Location
City:  Kish Island, Hormozgan, Iran
ICAO / IATA:OIBK / KIH

Details
Type:Airport (Aerodrome, Airfield)
Use:Public/Civil, Military
Latitude:26°31'34"N (26.526156)
Longitude:53°58'49"E (53.980211)
Datum:WGS 1984
Elevation:101 ft (31 m)
Runways:2
Longest:12004 × 215 ft (3659 × 65.5 m)

Time
Timezone:UTC+3:30 (DST+6:30)
Local Time:

Weather
METAR:OIBK  041400Z 30016KT CAVOK 20/08 Q1017
TAF:OIBK  041100Z 0412/0518 33014KT 7000 NSC TEMPO 0412/0418 29020G30KT TEMPO 0421/0503 3000 HZ

Related Locations
Nearby:
Farthest:GMR: 11839 mi / 19054 km
Mangareva [Totegegie], Gambier Islands, PF

Find:

   beyond  
but within

Other Information
Maps:
Sources:

  


 


Great Circle Mapper   Great Circle Mapper
Great Circle Mapper FAQ   Great Circle Mapper FAQ
  Karl's Home Page
KLSē   KLSē Home
   GC on Facebook
Airlines of the World   Airlines of the World
Donate via PayPal


Copyright © 2004-2019, Karl L. Swartz. All rights reserved.
All trademarks mentioned herein belong to their respective owners.

Please see credits for attribution and copyright information.

Karl Swartz <karl@kls2.com>
  Powered by FreeBSD
Valid HTML 4.01!
Labeled with ICRA
hCard Microformat
Geo Microformat